createdAt,value
2018-01-10T00:00:30.820Z,100.0
2018-01-10T00:01:31.549Z,100.0
2018-01-10T00:02:32.369Z,100.0
2018-01-10T00:03:33.100Z,100.0
2018-01-10T00:04:33.899Z,100.0
2018-01-10T00:05:34.622Z,100.0
2018-01-10T00:06:35.355Z,100.0
2018-01-10T00:07:36.451Z,100.0
2018-01-10T00:08:37.184Z,100.0
2018-01-10T00:09:37.999Z,100.0
2018-01-10T00:10:38.719Z,100.0
2018-01-10T00:11:39.449Z,100.0
2018-01-10T00:12:40.288Z,100.0
2018-01-10T00:13:41.068Z,100.0
2018-01-10T00:14:41.791Z,100.0
2018-01-10T00:15:42.593Z,100.0
2018-01-10T00:16:43.394Z,100.0
2018-01-10T00:17:44.159Z,100.0
2018-01-10T00:18:44.899Z,100.0
2018-01-10T00:19:45.628Z,100.0
2018-01-10T00:20:46.360Z,100.0
2018-01-10T00:21:47.089Z,100.0
2018-01-10T00:22:47.900Z,100.0
2018-01-10T00:23:48.615Z,100.0
2018-01-10T00:24:49.334Z,100.0
2018-01-10T00:25:50.070Z,100.0
2018-01-10T00:26:50.797Z,100.0
2018-01-10T00:27:51.527Z,100.0
2018-01-10T00:28:52.308Z,100.0
2018-01-10T00:29:53.034Z,100.0
2018-01-10T00:30:53.824Z,100.0
2018-01-10T00:31:54.542Z,100.0
2018-01-10T00:32:55.259Z,100.0
2018-01-10T00:33:55.983Z,100.0
2018-01-10T00:34:56.701Z,100.0
2018-01-10T00:35:57.430Z,100.0
2018-01-10T00:36:58.269Z,100.0
2018-01-10T00:37:58.991Z,100.0
2018-01-10T00:38:59.829Z,100.0
2018-01-10T00:40:00.546Z,100.0
2018-01-10T00:41:01.272Z,100.0
2018-01-10T00:42:02.010Z,100.0
2018-01-10T00:43:02.790Z,100.0
2018-01-10T00:44:03.571Z,100.0
2018-01-10T00:45:04.305Z,100.0
2018-01-10T00:46:05.079Z,100.0
2018-01-10T00:47:05.808Z,100.0
2018-01-10T00:48:06.530Z,100.0
2018-01-10T00:49:07.306Z,100.0
2018-01-10T00:50:08.126Z,100.0
2018-01-10T00:51:08.855Z,100.0
2018-01-10T00:52:09.577Z,100.0
2018-01-10T00:53:10.301Z,100.0
2018-01-10T00:54:11.324Z,100.0
2018-01-10T00:55:12.063Z,100.0
2018-01-10T00:56:12.789Z,100.0
2018-01-10T00:57:13.508Z,100.0
2018-01-10T00:58:14.233Z,100.0
2018-01-10T00:59:15.077Z,100.0
2018-01-10T01:00:15.884Z,100.0
2018-01-10T01:01:16.606Z,100.0
2018-01-10T01:02:17.320Z,100.0
2018-01-10T01:03:18.055Z,100.0
2018-01-10T01:04:18.781Z,100.0
2018-01-10T01:05:19.516Z,100.0
2018-01-10T01:06:20.236Z,100.0
2018-01-10T01:07:21.089Z,100.0
2018-01-10T01:08:21.808Z,100.0
2018-01-10T01:09:22.619Z,100.0
2018-01-10T01:10:23.367Z,100.0
2018-01-10T01:11:24.123Z,100.0
2018-01-10T01:12:24.800Z,100.0
2018-01-10T01:13:25.521Z,100.0
2018-01-10T01:14:26.328Z,100.0
2018-01-10T01:15:27.101Z,100.0
2018-01-10T01:16:27.890Z,100.0
2018-01-10T01:17:28.699Z,100.0
2018-01-10T01:18:29.420Z,100.0
2018-01-10T01:19:30.144Z,100.0
2018-01-10T01:20:30.869Z,100.0
2018-01-10T01:21:31.653Z,100.0
2018-01-10T01:22:32.434Z,100.0
2018-01-10T01:23:33.188Z,100.0
2018-01-10T01:24:33.935Z,100.0
2018-01-10T01:25:34.709Z,100.0
2018-01-10T01:26:35.430Z,100.0
2018-01-10T01:27:36.163Z,100.0
2018-01-10T01:28:36.950Z,100.0
2018-01-10T01:29:37.682Z,100.0
2018-01-10T01:30:38.460Z,100.0
2018-01-10T01:31:39.229Z,100.0
2018-01-10T01:32:39.983Z,100.0
2018-01-10T01:33:40.759Z,100.0
2018-01-10T01:34:41.488Z,100.0
2018-01-10T01:35:42.221Z,100.0
2018-01-10T01:36:42.948Z,100.0
2018-01-10T01:37:43.668Z,100.0
2018-01-10T01:38:44.400Z,100.0
2018-01-10T01:39:45.131Z,100.0
2018-01-10T01:40:45.864Z,100.0
2018-01-10T01:41:46.576Z,100.0
2018-01-10T01:42:47.304Z,100.0
2018-01-10T01:43:48.040Z,100.0
2018-01-10T01:44:48.764Z,100.0
2018-01-10T01:45:49.495Z,100.0
2018-01-10T01:46:50.221Z,100.0
2018-01-10T01:47:51.067Z,100.0
2018-01-10T01:48:51.810Z,100.0
2018-01-10T01:49:52.530Z,100.0
2018-01-10T01:50:53.259Z,100.0
2018-01-10T01:51:53.989Z,100.0
2018-01-10T01:52:54.766Z,100.0
2018-01-10T01:53:55.485Z,100.0
2018-01-10T01:54:56.258Z,100.0
2018-01-10T01:55:57.058Z,100.0
2018-01-10T01:56:57.779Z,100.0
2018-01-10T01:57:58.564Z,100.0
2018-01-10T01:58:59.299Z,100.0
2018-01-10T02:00:00.016Z,100.0
2018-01-10T02:01:00.790Z,100.0
2018-01-10T02:02:01.514Z,100.0
2018-01-10T02:03:02.300Z,100.0
2018-01-10T02:04:03.048Z,100.0
2018-01-10T02:05:03.830Z,100.0
2018-01-10T02:06:04.606Z,100.0
2018-01-10T02:07:05.338Z,100.0
2018-01-10T02:08:06.072Z,100.0
2018-01-10T02:09:06.869Z,100.0
2018-01-10T02:10:07.592Z,100.0
2018-01-10T02:11:08.470Z,100.0
2018-01-10T02:12:09.189Z,100.0
2018-01-10T02:13:09.929Z,100.0
2018-01-10T02:14:10.702Z,100.0
2018-01-10T02:15:11.427Z,100.0
2018-01-10T02:16:12.228Z,100.0
2018-01-10T02:17:13.001Z,100.0
2018-01-10T02:18:13.733Z,100.0
2018-01-10T02:19:14.534Z,100.0
2018-01-10T02:20:15.338Z,100.0
2018-01-10T02:21:16.171Z,100.0
2018-01-10T02:22:16.894Z,100.0
2018-01-10T02:23:17.642Z,100.0
2018-01-10T02:24:18.371Z,100.0
2018-01-10T02:25:19.190Z,100.0
2018-01-10T02:26:19.912Z,100.0
2018-01-10T02:27:20.635Z,100.0
2018-01-10T02:28:21.359Z,100.0
2018-01-10T02:29:22.078Z,100.0
2018-01-10T02:30:22.871Z,100.0
2018-01-10T02:31:23.601Z,100.0
2018-01-10T02:32:24.340Z,100.0
2018-01-10T02:33:25.060Z,100.0
2018-01-10T02:34:25.790Z,100.0
2018-01-10T02:35:26.515Z,100.0
2018-01-10T02:36:27.319Z,100.0
2018-01-10T02:37:28.048Z,100.0
2018-01-10T02:38:28.817Z,100.0
2018-01-10T02:39:29.595Z,100.0
2018-01-10T02:40:30.329Z,100.0
2018-01-10T02:41:31.045Z,100.0
2018-01-10T02:42:31.779Z,100.0
2018-01-10T02:43:32.509Z,100.0
2018-01-10T02:44:33.329Z,100.0
2018-01-10T02:45:34.065Z,100.0
2018-01-10T02:46:34.800Z,100.0
2018-01-10T02:47:35.537Z,100.0
2018-01-10T02:48:36.326Z,100.0
2018-01-10T02:49:37.060Z,100.0
2018-01-10T02:50:37.823Z,100.0
2018-01-10T02:51:38.580Z,100.0
2018-01-10T02:52:39.309Z,100.0
2018-01-10T02:53:40.042Z,100.0
2018-01-10T02:54:40.820Z,100.0
2018-01-10T02:55:41.550Z,100.0
2018-01-10T02:56:42.280Z,100.0
2018-01-10T02:57:43.004Z,100.0
2018-01-10T02:58:43.741Z,100.0
2018-01-10T02:59:44.469Z,100.0
2018-01-10T03:00:45.197Z,100.0
2018-01-10T03:01:45.999Z,100.0
2018-01-10T03:02:46.720Z,100.0
2018-01-10T03:03:47.450Z,100.0
2018-01-10T03:04:48.188Z,100.0
2018-01-10T03:05:48.949Z,100.0
2018-01-10T03:06:49.990Z,100.0
2018-01-10T03:07:50.714Z,100.0
2018-01-10T03:08:51.374Z,100.0
2018-01-10T03:09:52.148Z,100.0
2018-01-10T03:10:52.879Z,100.0
2018-01-10T03:11:53.658Z,100.0
2018-01-10T03:12:54.438Z,100.0
2018-01-10T03:13:55.223Z,100.0
2018-01-10T03:14:56.007Z,100.0
2018-01-10T03:15:56.745Z,100.0
2018-01-10T03:16:57.511Z,100.0
2018-01-10T03:17:58.232Z,100.0
2018-01-10T03:18:59.079Z,100.0
2018-01-10T03:19:59.805Z,100.0
2018-01-10T03:21:00.539Z,100.0
2018-01-10T03:22:01.253Z,100.0
2018-01-10T03:23:01.988Z,100.0
2018-01-10T03:24:02.844Z,100.0
2018-01-10T03:25:03.620Z,100.0
2018-01-10T03:26:04.343Z,100.0
2018-01-10T03:27:05.066Z,100.0
2018-01-10T03:28:05.784Z,100.0
2018-01-10T03:29:06.495Z,100.0
2018-01-10T03:30:07.235Z,100.0
2018-01-10T03:31:08.026Z,100.0
2018-01-10T03:32:08.818Z,100.0
2018-01-10T03:33:09.543Z,100.0
2018-01-10T03:34:10.266Z,100.0
2018-01-10T03:35:11.364Z,100.0
2018-01-10T03:36:12.132Z,100.0
2018-01-10T03:37:12.863Z,100.0
2018-01-10T03:38:13.656Z,100.0
2018-01-10T03:39:14.397Z,100.0
2018-01-10T03:40:15.167Z,100.0
2018-01-10T03:41:15.878Z,100.0
2018-01-10T03:42:16.687Z,100.0
2018-01-10T03:43:17.473Z,100.0
2018-01-10T03:44:18.194Z,100.0
2018-01-10T03:45:19.295Z,100.0
2018-01-10T03:46:20.012Z,100.0
2018-01-10T03:47:20.741Z,100.0
2018-01-10T03:48:21.515Z,100.0
2018-01-10T03:49:22.238Z,100.0
2018-01-10T03:50:23.017Z,100.0
2018-01-10T03:51:23.756Z,100.0
2018-01-10T03:52:24.483Z,100.0
2018-01-10T03:53:25.215Z,100.0
2018-01-10T03:54:26.001Z,100.0
2018-01-10T03:55:26.773Z,100.0
2018-01-10T03:56:27.501Z,100.0
2018-01-10T03:57:28.289Z,100.0
2018-01-10T03:58:29.047Z,100.0
2018-01-10T03:59:29.742Z,100.0
2018-01-10T04:00:30.472Z,100.0
2018-01-10T04:01:31.213Z,100.0
2018-01-10T04:02:31.942Z,100.0
2018-01-10T04:03:32.752Z,100.0
2018-01-10T04:04:33.544Z,100.0
2018-01-10T04:05:34.262Z,100.0
2018-01-10T04:06:34.987Z,100.0
2018-01-10T04:07:35.708Z,100.0
2018-01-10T04:08:36.436Z,100.0
2018-01-10T04:09:37.146Z,100.0
2018-01-10T04:10:37.872Z,100.0
2018-01-10T04:11:38.615Z,100.0
2018-01-10T04:12:39.403Z,100.0
2018-01-10T04:13:40.125Z,100.0
2018-01-10T04:14:40.871Z,100.0
2018-01-10T04:15:41.593Z,100.0
2018-01-10T04:16:42.340Z,100.0
2018-01-10T04:17:43.104Z,100.0
2018-01-10T04:18:43.916Z,100.0
2018-01-10T04:19:44.642Z,100.0
2018-01-10T04:20:45.380Z,100.0
2018-01-10T04:21:46.164Z,100.0
2018-01-10T04:22:46.914Z,100.0
2018-01-10T04:23:47.702Z,100.0
2018-01-10T04:24:48.435Z,100.0
2018-01-10T04:25:49.242Z,100.0
2018-01-10T04:26:49.983Z,100.0
2018-01-10T04:27:50.691Z,100.0
2018-01-10T04:28:51.412Z,100.0
2018-01-10T04:29:52.143Z,100.0
2018-01-10T04:30:52.945Z,100.0
2018-01-10T04:31:53.665Z,100.0
2018-01-10T04:32:54.391Z,100.0
2018-01-10T04:33:55.118Z,100.0
2018-01-10T04:34:55.922Z,100.0
2018-01-10T04:35:56.661Z,100.0
2018-01-10T04:36:57.395Z,100.0
2018-01-10T04:37:58.163Z,100.0
2018-01-10T04:38:58.962Z,100.0
2018-01-10T04:39:59.692Z,100.0
2018-01-10T04:41:00.712Z,100.0
2018-01-10T04:42:01.441Z,100.0
2018-01-10T04:43:02.247Z,100.0
2018-01-10T04:44:02.970Z,100.0
2018-01-10T04:45:03.772Z,100.0
2018-01-10T04:46:04.502Z,100.0
2018-01-10T04:47:05.223Z,100.0
2018-01-10T04:48:06.022Z,100.0
2018-01-10T04:49:06.742Z,100.0
2018-01-10T04:50:07.526Z,100.0
2018-01-10T04:51:08.314Z,100.0
2018-01-10T04:52:09.122Z,100.0
2018-01-10T04:53:09.912Z,100.0
2018-01-10T04:54:10.640Z,100.0
2018-01-10T04:55:11.361Z,100.0
2018-01-10T04:56:12.081Z,100.0
2018-01-10T04:57:12.800Z,100.0
2018-01-10T04:58:13.535Z,100.0
2018-01-10T04:59:14.311Z,100.0
2018-01-10T05:00:15.039Z,100.0
2018-01-10T05:01:15.775Z,100.0
2018-01-10T05:02:16.640Z,100.0
2018-01-10T05:03:17.423Z,100.0
2018-01-10T05:04:18.207Z,100.0
2018-01-10T05:05:18.919Z,100.0
2018-01-10T05:06:19.640Z,100.0
2018-01-10T05:07:20.352Z,100.0
2018-01-10T05:08:21.081Z,100.0
2018-01-10T05:09:21.805Z,100.0
2018-01-10T05:10:22.571Z,100.0
2018-01-10T05:11:23.347Z,100.0
2018-01-10T05:12:24.084Z,100.0
2018-01-10T05:13:24.811Z,100.0
2018-01-10T05:14:25.536Z,100.0
2018-01-10T05:15:26.264Z,100.0
2018-01-10T05:16:27.036Z,100.0
2018-01-10T05:17:27.803Z,100.0
2018-01-10T05:18:28.566Z,100.0
2018-01-10T05:19:29.288Z,100.0
2018-01-10T05:20:30.016Z,100.0
2018-01-10T05:21:30.740Z,100.0
2018-01-10T05:22:31.537Z,100.0
2018-01-10T05:23:32.330Z,100.0
2018-01-10T05:24:33.061Z,100.0
2018-01-10T05:25:33.773Z,100.0
2018-01-10T05:26:34.500Z,100.0
2018-01-10T05:27:35.231Z,100.0
2018-01-10T05:28:35.952Z,100.0
2018-01-10T05:29:36.992Z,100.0
2018-01-10T05:30:37.814Z,100.0
2018-01-10T05:31:38.531Z,100.0
2018-01-10T05:32:39.260Z,100.0
2018-01-10T05:33:39.973Z,100.0
2018-01-10T05:34:40.750Z,100.0
2018-01-10T05:35:41.488Z,100.0
2018-01-10T05:36:42.265Z,100.0
2018-01-10T05:37:43.069Z,100.0
2018-01-10T05:38:43.860Z,100.0
2018-01-10T05:39:44.640Z,100.0
2018-01-10T05:40:45.427Z,100.0
2018-01-10T05:41:46.160Z,100.0
2018-01-10T05:42:46.885Z,100.0
2018-01-10T05:45:01.889Z,100.0
2018-01-10T05:46:02.652Z,100.0
2018-01-10T05:47:03.430Z,100.0
2018-01-10T05:48:04.156Z,100.0
2018-01-10T05:49:04.961Z,100.0
2018-01-10T05:50:05.680Z,100.0
2018-01-10T05:51:06.408Z,100.0
2018-01-10T05:52:07.190Z,100.0
2018-01-10T05:53:07.934Z,100.0
2018-01-10T05:54:08.778Z,100.0
2018-01-10T05:55:09.591Z,100.0
2018-01-10T05:56:10.320Z,100.0
2018-01-10T05:57:11.032Z,100.0
2018-01-10T05:58:11.760Z,100.0
2018-01-10T05:59:12.501Z,100.0
2018-01-10T06:00:13.225Z,100.0
2018-01-10T06:01:13.960Z,100.0
2018-01-10T06:02:14.681Z,100.0
2018-01-10T06:03:15.407Z,100.0
2018-01-10T06:04:16.259Z,100.0
2018-01-10T06:05:16.990Z,100.0
2018-01-10T06:06:17.722Z,100.0
2018-01-10T06:07:18.439Z,100.0
2018-01-10T06:08:19.174Z,100.0
2018-01-10T06:09:19.972Z,100.0
2018-01-10T06:10:20.730Z,100.0
2018-01-10T06:11:21.513Z,100.0
2018-01-10T06:12:22.311Z,100.0
2018-01-10T06:13:23.044Z,100.0
2018-01-10T06:14:23.767Z,100.0
2018-01-10T06:15:24.491Z,100.0
2018-01-10T06:16:25.263Z,100.0
2018-01-10T06:17:25.990Z,100.0
2018-01-10T06:18:26.719Z,100.0
2018-01-10T06:19:27.444Z,100.0
2018-01-10T06:20:28.172Z,100.0
2018-01-10T06:21:28.985Z,100.0
2018-01-10T06:22:29.712Z,100.0
2018-01-10T06:23:30.436Z,100.0
2018-01-10T06:24:31.158Z,100.0
2018-01-10T06:25:31.936Z,100.0
2018-01-10T06:26:32.687Z,100.0
2018-01-10T06:27:33.401Z,100.0
2018-01-10T06:28:34.130Z,100.0
2018-01-10T06:29:34.870Z,100.0
2018-01-10T06:30:35.606Z,100.0
2018-01-10T06:31:36.419Z,100.0
2018-01-10T06:32:37.491Z,100.0
2018-01-10T06:33:38.302Z,100.0
2018-01-10T06:34:39.050Z,100.0
2018-01-10T06:35:39.777Z,100.0
2018-01-10T06:36:40.560Z,100.0
2018-01-10T06:37:41.299Z,100.0
2018-01-10T06:38:42.136Z,100.0
2018-01-10T06:39:42.850Z,100.0
2018-01-10T06:40:43.580Z,100.0
2018-01-10T06:41:44.320Z,100.0
2018-01-10T06:42:45.080Z,100.0
2018-01-10T06:43:45.802Z,100.0
2018-01-10T06:44:46.661Z,100.0
2018-01-10T06:45:47.390Z,100.0
2018-01-10T06:46:48.121Z,100.0
2018-01-10T06:47:48.845Z,100.0
2018-01-10T06:48:49.671Z,100.0
2018-01-10T06:49:50.404Z,100.0
2018-01-10T06:50:51.131Z,100.0
2018-01-10T06:51:51.875Z,100.0
2018-01-10T06:52:52.706Z,100.0
2018-01-10T06:53:53.670Z,100.0
2018-01-10T06:54:54.391Z,100.0
2018-01-10T06:55:55.130Z,100.0
2018-01-10T06:56:55.849Z,100.0
2018-01-10T06:57:56.579Z,100.0
2018-01-10T06:58:57.351Z,100.0
2018-01-10T06:59:58.073Z,100.0
2018-01-10T07:00:58.874Z,100.0
2018-01-10T07:01:59.591Z,100.0
2018-01-10T07:03:00.340Z,100.0
2018-01-10T07:04:01.124Z,100.0
2018-01-10T07:05:01.851Z,100.0
2018-01-10T07:06:02.570Z,100.0
2018-01-10T07:07:03.301Z,100.0
2018-01-10T07:08:04.020Z,100.0
2018-01-10T07:09:04.810Z,99.8
2018-01-10T07:10:05.579Z,99.4
2018-01-10T07:11:06.263Z,99.1
2018-01-10T07:12:07.067Z,99.6
2018-01-10T07:13:07.881Z,99.6
2018-01-10T07:14:08.610Z,99.4
2018-01-10T07:15:09.361Z,100.0
2018-01-10T07:16:10.145Z,100.0
2018-01-10T07:17:10.943Z,100.0
2018-01-10T07:18:11.662Z,99.8
2018-01-10T07:19:12.473Z,99.8
2018-01-10T07:20:13.269Z,100.0
2018-01-10T07:21:14.002Z,100.0
2018-01-10T07:22:14.812Z,100.0
2018-01-10T07:23:15.633Z,100.0
2018-01-10T07:24:16.360Z,100.0
2018-01-10T07:25:17.139Z,100.0
2018-01-10T07:26:17.884Z,100.0
2018-01-10T07:27:18.700Z,100.0
2018-01-10T07:28:19.426Z,100.0
2018-01-10T07:29:20.234Z,100.0
2018-01-10T07:30:21.083Z,100.0
2018-01-10T07:31:21.890Z,100.0
2018-01-10T07:32:22.619Z,100.0
2018-01-10T07:33:23.345Z,100.0
2018-01-10T07:34:24.069Z,100.0
2018-01-10T07:35:24.850Z,100.0
2018-01-10T07:36:25.612Z,100.0
2018-01-10T07:37:26.310Z,100.0
2018-01-10T07:38:27.035Z,100.0
2018-01-10T07:39:27.750Z,100.0
2018-01-10T07:40:28.492Z,100.0
2018-01-10T07:41:29.215Z,100.0
2018-01-10T07:42:29.950Z,100.0
2018-01-10T07:43:30.690Z,100.0
2018-01-10T07:44:31.432Z,100.0
2018-01-10T07:45:32.269Z,100.0
2018-01-10T07:46:32.949Z,99.6
2018-01-10T07:47:33.679Z,99.6
2018-01-10T07:48:34.420Z,100.0
2018-01-10T07:49:35.140Z,99.5
2018-01-10T07:50:35.878Z,99.2
2018-01-10T07:51:36.660Z,99.2
2018-01-10T07:52:37.439Z,99.3
2018-01-10T07:53:38.164Z,99.0
2018-01-10T07:54:38.885Z,99.2
2018-01-10T07:55:39.612Z,98.9
2018-01-10T07:56:40.349Z,99.2
2018-01-10T07:57:41.200Z,99.0
2018-01-10T07:58:41.972Z,99.3
2018-01-10T07:59:42.693Z,99.3
2018-01-10T08:00:43.427Z,99.6
2018-01-10T08:01:44.219Z,99.8
2018-01-10T08:02:44.950Z,99.6
2018-01-10T08:03:45.693Z,99.6
2018-01-10T08:04:46.483Z,99.7
2018-01-10T08:05:47.250Z,99.6
2018-01-10T08:06:48.028Z,99.5
2018-01-10T08:07:48.779Z,99.7
2018-01-10T08:08:49.484Z,100.0
2018-01-10T08:09:50.230Z,99.8
2018-01-10T08:10:50.982Z,100.0
2018-01-10T08:11:51.750Z,100.0
2018-01-10T08:12:52.877Z,100.0
2018-01-10T08:13:53.604Z,99.9
2018-01-10T08:14:54.326Z,99.6
2018-01-10T08:15:55.054Z,99.7
2018-01-10T08:16:55.795Z,99.7
2018-01-10T08:17:56.567Z,99.7
2018-01-10T08:18:57.728Z,99.8
2018-01-10T08:19:58.410Z,99.7
2018-01-10T08:20:59.214Z,99.7
2018-01-10T08:21:59.923Z,99.5
2018-01-10T08:23:00.651Z,99.7
2018-01-10T08:24:01.512Z,99.6
2018-01-10T08:25:02.281Z,99.5
2018-01-10T08:26:03.092Z,99.8
2018-01-10T08:27:03.826Z,100.0
2018-01-10T08:28:04.612Z,100.0
2018-01-10T08:29:05.470Z,100.0
2018-01-10T08:30:06.224Z,100.0
2018-01-10T08:31:07.057Z,100.0
2018-01-10T08:32:07.776Z,100.0
2018-01-10T08:33:08.601Z,100.0
2018-01-10T08:34:09.387Z,100.0
2018-01-10T08:35:10.120Z,100.0
2018-01-10T08:36:10.862Z,100.0
2018-01-10T08:37:11.609Z,100.0
2018-01-10T08:38:12.346Z,100.0
2018-01-10T08:39:13.087Z,100.0
2018-01-10T08:40:13.892Z,100.0
2018-01-10T08:41:14.612Z,100.0
2018-01-10T08:42:15.341Z,100.0
2018-01-10T08:43:16.179Z,100.0
2018-01-10T08:44:16.899Z,100.0
2018-01-10T08:45:17.654Z,100.0
2018-01-10T08:46:18.354Z,100.0
2018-01-10T08:47:19.079Z,100.0
2018-01-10T08:48:19.900Z,100.0
2018-01-10T08:49:20.690Z,100.0
2018-01-10T08:50:21.431Z,100.0
2018-01-10T08:51:22.172Z,100.0
2018-01-10T08:52:22.971Z,100.0
2018-01-10T08:53:23.741Z,100.0
2018-01-10T08:54:24.474Z,100.0
2018-01-10T08:55:25.200Z,100.0
2018-01-10T08:56:26.006Z,100.0
2018-01-10T08:57:26.807Z,100.0
2018-01-10T08:58:27.655Z,100.0
2018-01-10T08:59:28.438Z,100.0
2018-01-10T09:00:29.168Z,100.0
2018-01-10T09:01:29.898Z,100.0
2018-01-10T09:02:30.629Z,100.0
2018-01-10T09:03:31.411Z,100.0
2018-01-10T09:04:32.139Z,100.0
2018-01-10T09:05:32.929Z,100.0
2018-01-10T09:06:33.659Z,100.0
2018-01-10T09:07:34.399Z,100.0
2018-01-10T09:08:35.185Z,100.0
2018-01-10T09:09:36.045Z,100.0
2018-01-10T09:10:36.769Z,100.0
2018-01-10T09:11:37.510Z,100.0
2018-01-10T09:12:38.229Z,100.0
2018-01-10T09:13:38.964Z,100.0
2018-01-10T09:14:39.707Z,100.0
2018-01-10T09:15:40.481Z,100.0
2018-01-10T09:16:41.273Z,100.0
2018-01-10T09:17:42.007Z,100.0
2018-01-10T09:18:42.802Z,100.0
2018-01-10T09:19:43.609Z,100.0
2018-01-10T09:20:44.336Z,100.0
2018-01-10T09:21:45.136Z,100.0
2018-01-10T09:22:45.874Z,100.0
2018-01-10T09:23:46.678Z,100.0
2018-01-10T09:24:47.450Z,100.0
2018-01-10T09:25:48.231Z,100.0
2018-01-10T09:26:49.011Z,100.0
2018-01-10T09:27:49.750Z,100.0
2018-01-10T09:28:50.478Z,100.0
2018-01-10T09:29:51.230Z,100.0
2018-01-10T09:30:52.004Z,100.0
2018-01-10T09:31:52.787Z,100.0
2018-01-10T09:32:53.519Z,100.0
2018-01-10T09:33:54.257Z,100.0
2018-01-10T09:34:55.028Z,100.0
2018-01-10T09:35:55.748Z,100.0
2018-01-10T09:36:56.530Z,100.0
2018-01-10T09:37:57.270Z,100.0
2018-01-10T09:38:58.012Z,100.0
2018-01-10T09:39:58.730Z,100.0
2018-01-10T09:40:59.451Z,100.0
2018-01-10T09:42:00.184Z,100.0
2018-01-10T09:43:00.915Z,100.0
2018-01-10T09:44:01.644Z,100.0
2018-01-10T09:45:02.476Z,100.0
2018-01-10T09:46:03.290Z,100.0
2018-01-10T09:47:04.011Z,100.0
2018-01-10T09:48:04.734Z,100.0
2018-01-10T09:49:05.459Z,100.0
2018-01-10T09:50:06.253Z,100.0
2018-01-10T09:51:06.967Z,100.0
2018-01-10T09:52:07.784Z,100.0
2018-01-10T09:53:08.600Z,100.0
2018-01-10T09:54:09.333Z,100.0
2018-01-10T09:55:10.110Z,100.0
2018-01-10T09:56:10.841Z,100.0
2018-01-10T09:57:11.660Z,100.0
2018-01-10T09:58:12.380Z,100.0
2018-01-10T09:59:13.117Z,100.0
2018-01-10T10:00:13.893Z,100.0
2018-01-10T10:01:14.719Z,100.0
2018-01-10T10:02:15.457Z,100.0
2018-01-10T10:03:16.251Z,100.0
2018-01-10T10:04:16.935Z,100.0
2018-01-10T10:05:17.723Z,100.0
2018-01-10T10:06:18.549Z,100.0
2018-01-10T10:07:19.281Z,100.0
2018-01-10T10:08:20.018Z,100.0
2018-01-10T10:09:20.819Z,100.0
2018-01-10T10:10:21.662Z,100.0
2018-01-10T10:11:22.418Z,100.0
2018-01-10T10:12:23.142Z,100.0
2018-01-10T10:13:23.878Z,100.0
2018-01-10T10:14:24.712Z,100.0
2018-01-10T10:15:25.579Z,100.0
2018-01-10T10:16:26.310Z,100.0
2018-01-10T10:17:27.064Z,100.0
2018-01-10T10:18:27.798Z,100.0
2018-01-10T10:19:28.545Z,100.0
2018-01-10T10:20:29.310Z,100.0
2018-01-10T10:21:30.051Z,100.0
2018-01-10T10:22:30.774Z,100.0
2018-01-10T10:23:31.570Z,100.0
2018-01-10T10:24:32.315Z,100.0
2018-01-10T10:25:33.049Z,100.0
2018-01-10T10:26:33.790Z,100.0
2018-01-10T10:27:34.529Z,100.0
2018-01-10T10:28:35.265Z,100.0
2018-01-10T10:29:36.042Z,100.0
2018-01-10T10:30:36.782Z,100.0
2018-01-10T10:31:37.560Z,100.0
2018-01-10T10:32:38.283Z,100.0
2018-01-10T10:33:39.020Z,100.0
2018-01-10T10:34:39.745Z,100.0
2018-01-10T10:35:40.571Z,100.0
2018-01-10T10:36:41.371Z,100.0
2018-01-10T10:37:42.192Z,100.0
2018-01-10T10:38:42.932Z,100.0
2018-01-10T10:39:43.733Z,100.0
2018-01-10T10:40:44.540Z,100.0
2018-01-10T10:41:45.280Z,100.0
2018-01-10T10:42:46.011Z,100.0
2018-01-10T10:43:46.755Z,100.0
2018-01-10T10:44:47.519Z,100.0
2018-01-10T10:45:48.322Z,100.0
2018-01-10T10:46:49.110Z,100.0
2018-01-10T10:47:49.850Z,100.0
2018-01-10T10:48:50.592Z,100.0
2018-01-10T10:49:51.381Z,100.0
2018-01-10T10:50:52.124Z,100.0
2018-01-10T10:51:52.860Z,100.0
2018-01-10T10:52:53.594Z,100.0
2018-01-10T10:53:54.391Z,100.0
2018-01-10T10:54:55.124Z,100.0
2018-01-10T10:55:55.870Z,100.0
2018-01-10T10:56:56.599Z,100.0
2018-01-10T10:57:57.340Z,100.0
2018-01-10T10:58:58.068Z,100.0
2018-01-10T10:59:58.819Z,100.0
2018-01-10T11:00:59.562Z,100.0
2018-01-10T11:02:00.348Z,100.0
2018-01-10T11:03:01.093Z,100.0
2018-01-10T11:04:01.905Z,100.0
2018-01-10T11:05:02.637Z,100.0
2018-01-10T11:06:03.368Z,100.0
2018-01-10T11:07:04.109Z,100.0
2018-01-10T11:08:04.914Z,100.0
2018-01-10T11:09:05.629Z,100.0
2018-01-10T11:10:06.368Z,100.0
2018-01-10T11:11:07.098Z,100.0
2018-01-10T11:12:07.841Z,100.0
2018-01-10T11:13:08.693Z,100.0
2018-01-10T11:14:09.391Z,100.0
2018-01-10T11:15:10.195Z,100.0
2018-01-10T11:16:11.036Z,100.0
2018-01-10T11:17:11.789Z,100.0
2018-01-10T11:18:12.524Z,100.0
2018-01-10T11:19:13.351Z,100.0
2018-01-10T11:20:14.088Z,100.0
2018-01-10T11:21:14.834Z,100.0
2018-01-10T11:22:15.634Z,100.0
2018-01-10T11:23:16.372Z,100.0
2018-01-10T11:24:17.109Z,100.0
2018-01-10T11:25:17.889Z,100.0
2018-01-10T11:26:18.637Z,100.0
2018-01-10T11:27:19.415Z,100.0
2018-01-10T11:28:20.145Z,100.0
2018-01-10T11:29:20.880Z,100.0
2018-01-10T11:30:21.702Z,100.0
2018-01-10T11:31:22.442Z,100.0
2018-01-10T11:32:23.238Z,100.0
2018-01-10T11:33:23.969Z,100.0
2018-01-10T11:34:24.702Z,100.0
2018-01-10T11:35:25.478Z,100.0
2018-01-10T11:36:26.210Z,100.0
2018-01-10T11:37:27.029Z,100.0
2018-01-10T11:38:27.848Z,100.0
2018-01-10T11:39:28.596Z,100.0
2018-01-10T11:40:29.438Z,100.0
2018-01-10T11:41:30.245Z,100.0
2018-01-10T11:42:30.976Z,100.0
2018-01-10T11:43:31.982Z,100.0
2018-01-10T11:44:33.863Z,100.0
2018-01-10T11:45:34.817Z,100.0
2018-01-10T11:46:35.606Z,100.0
2018-01-10T11:47:36.329Z,100.0
2018-01-10T11:48:37.057Z,100.0
2018-01-10T11:49:37.806Z,100.0
2018-01-10T11:50:38.638Z,100.0
2018-01-10T11:51:39.379Z,100.0
2018-01-10T11:52:40.118Z,100.0
2018-01-10T11:53:40.859Z,100.0
2018-01-10T11:54:41.597Z,100.0
2018-01-10T11:55:42.380Z,100.0
2018-01-10T11:56:43.118Z,100.0
2018-01-10T11:57:43.856Z,100.0
2018-01-10T11:58:44.605Z,100.0
2018-01-10T11:59:45.478Z,100.0
2018-01-10T12:00:46.160Z,100.0
2018-01-10T12:01:46.890Z,100.0
2018-01-10T12:02:47.618Z,99.9
2018-01-10T12:03:48.362Z,100.0
2018-01-10T12:04:49.161Z,100.0
2018-01-10T12:05:49.977Z,100.0
2018-01-10T12:06:50.757Z,100.0
2018-01-10T12:07:51.503Z,100.0
2018-01-10T12:08:52.222Z,100.0
2018-01-10T12:09:52.994Z,100.0
2018-01-10T12:10:53.789Z,100.0
2018-01-10T12:11:54.519Z,100.0
2018-01-10T12:12:55.234Z,100.0
2018-01-10T12:13:55.957Z,100.0
2018-01-10T12:14:56.702Z,100.0
2018-01-10T12:15:57.487Z,100.0
2018-01-10T12:16:58.300Z,100.0
2018-01-10T12:17:59.029Z,100.0
2018-01-10T12:18:59.811Z,100.0
2018-01-10T12:20:00.546Z,100.0
2018-01-10T12:21:01.279Z,100.0
2018-01-10T12:22:02.018Z,100.0
2018-01-10T12:23:02.758Z,100.0
2018-01-10T12:24:03.548Z,100.0
2018-01-10T12:25:04.282Z,100.0
2018-01-10T12:26:05.024Z,100.0
2018-01-10T12:27:05.800Z,100.0
2018-01-10T12:28:06.510Z,100.0
2018-01-10T12:29:07.280Z,100.0
2018-01-10T12:30:08.013Z,99.9
2018-01-10T12:31:08.759Z,100.0
2018-01-10T12:32:09.591Z,99.4
2018-01-10T12:33:10.313Z,98.9
2018-01-10T12:34:11.153Z,99.2
2018-01-10T12:35:11.878Z,98.9
2018-01-10T12:36:12.627Z,98.7
2018-01-10T12:37:13.348Z,99.0
2018-01-10T12:38:14.070Z,98.8
2018-01-10T12:39:14.929Z,99.3
2018-01-10T12:40:15.660Z,99.3
2018-01-10T12:41:16.397Z,98.9
2018-01-10T12:42:17.188Z,98.5
2018-01-10T12:43:17.979Z,98.9
2018-01-10T12:44:18.830Z,99.7
2018-01-10T12:45:19.528Z,99.5
2018-01-10T12:46:20.271Z,99.6
2018-01-10T12:47:21.003Z,99.6
2018-01-10T12:48:21.749Z,100.0
2018-01-10T12:49:22.445Z,98.8
2018-01-10T12:50:23.216Z,100.0
2018-01-10T12:51:23.927Z,100.0
2018-01-10T12:52:24.658Z,100.0
2018-01-10T12:53:25.398Z,100.0
2018-01-10T12:54:26.128Z,100.0
2018-01-10T12:55:26.974Z,99.8
2018-01-10T12:56:27.709Z,100.0
2018-01-10T12:57:28.527Z,100.0
2018-01-10T12:58:29.258Z,99.7
2018-01-10T12:59:29.985Z,100.0
2018-01-10T13:00:30.713Z,100.0
2018-01-10T13:01:31.579Z,99.6
2018-01-10T13:02:32.326Z,99.5
2018-01-10T13:03:33.123Z,99.9
2018-01-10T13:04:33.848Z,99.5
2018-01-10T13:05:34.588Z,99.4